sensor_id;sensor_type;location;lat;lon;timestamp;temperature;humidity
23629;DHT22;11991;57.150;-2.134;2024-01-07T00:00:24;3.70;99.90
23629;DHT22;11991;57.150;-2.134;2024-01-07T00:02:52;3.70;99.90
23629;DHT22;11991;57.150;-2.134;2024-01-07T00:05:19;3.70;99.90
23629;DHT22;11991;57.150;-2.134;2024-01-07T00:07:46;3.70;99.90
23629;DHT22;11991;57.150;-2.134;2024-01-07T00:10:15;3.70;99.90
23629;DHT22;11991;57.150;-2.134;2024-01-07T00:12:42;3.70;99.90
23629;DHT22;11991;57.150;-2.134;2024-01-07T00:15:09;3.60;99.90
23629;DHT22;11991;57.150;-2.134;2024-01-07T00:17:37;3.60;99.90
23629;DHT22;11991;57.150;-2.134;2024-01-07T00:20:05;3.60;99.90
23629;DHT22;11991;57.150;-2.134;2024-01-07T00:22:32;3.60;99.90
23629;DHT22;11991;57.150;-2.134;2024-01-07T00:25:00;3.60;99.90
23629;DHT22;11991;57.150;-2.134;2024-01-07T00:27:27;3.60;99.90
23629;DHT22;11991;57.150;-2.134;2024-01-07T00:29:54;3.60;99.90
23629;DHT22;11991;57.150;-2.134;2024-01-07T00:32:21;3.60;99.90
23629;DHT22;11991;57.150;-2.134;2024-01-07T00:34:49;3.60;99.90
23629;DHT22;11991;57.150;-2.134;2024-01-07T00:37:21;3.50;99.90
23629;DHT22;11991;57.150;-2.134;2024-01-07T00:39:48;3.50;99.90
23629;DHT22;11991;57.150;-2.134;2024-01-07T00:42:15;3.50;99.90
23629;DHT22;11991;57.150;-2.134;2024-01-07T00:44:42;3.60;99.90
23629;DHT22;11991;57.150;-2.134;2024-01-07T00:47:09;3.60;99.90
23629;DHT22;11991;57.150;-2.134;2024-01-07T00:49:37;3.60;99.90
23629;DHT22;11991;57.150;-2.134;2024-01-07T00:52:04;3.50;99.90
23629;DHT22;11991;57.150;-2.134;2024-01-07T00:54:31;3.60;99.90
23629;DHT22;11991;57.150;-2.134;2024-01-07T00:56:58;3.50;99.90
23629;DHT22;11991;57.150;-2.134;2024-01-07T00:59:28;3.50;99.90
23629;DHT22;11991;57.150;-2.134;2024-01-07T01:01:56;3.50;99.90
23629;DHT22;11991;57.150;-2.134;2024-01-07T01:04:23;3.50;99.90
23629;DHT22;11991;57.150;-2.134;2024-01-07T01:06:51;3.50;99.90
23629;DHT22;11991;57.150;-2.134;2024-01-07T01:09:18;3.50;99.90
23629;DHT22;11991;57.150;-2.134;2024-01-07T01:11:45;3.50;99.90
23629;DHT22;11991;57.150;-2.134;2024-01-07T01:14:12;3.50;99.90
23629;DHT22;11991;57.150;-2.134;2024-01-07T01:16:39;3.50;99.90
23629;DHT22;11991;57.150;-2.134;2024-01-07T01:19:06;3.50;99.90
23629;DHT22;11991;57.150;-2.134;2024-01-07T01:21:35;3.50;99.90
23629;DHT22;11991;57.150;-2.134;2024-01-07T01:24:02;3.50;99.90
23629;DHT22;11991;57.150;-2.134;2024-01-07T01:26:29;3.50;99.90
23629;DHT22;11991;57.150;-2.134;2024-01-07T01:28:56;3.50;99.90
23629;DHT22;11991;57.150;-2.134;2024-01-07T01:31:23;3.60;99.90
23629;DHT22;11991;57.150;-2.134;2024-01-07T01:33:51;3.50;99.90
23629;DHT22;11991;57.150;-2.134;2024-01-07T01:36:18;3.50;99.90
23629;DHT22;11991;57.150;-2.134;2024-01-07T01:38:45;3.60;99.90
23629;DHT22;11991;57.150;-2.134;2024-01-07T01:41:13;3.60;99.90
23629;DHT22;11991;57.150;-2.134;2024-01-07T01:43:40;3.60;99.90
23629;DHT22;11991;57.150;-2.134;2024-01-07T01:46:07;3.60;99.90
23629;DHT22;11991;57.150;-2.134;2024-01-07T01:48:36;3.60;99.90
23629;DHT22;11991;57.150;-2.134;2024-01-07T01:51:04;3.60;99.90
23629;DHT22;11991;57.150;-2.134;2024-01-07T01:53:32;3.60;99.90
23629;DHT22;11991;57.150;-2.134;2024-01-07T01:56:01;3.60;99.90
23629;DHT22;11991;57.150;-2.134;2024-01-07T01:58:32;3.70;99.90
23629;DHT22;11991;57.150;-2.134;2024-01-07T02:00:59;3.70;99.90
23629;DHT22;11991;57.150;-2.134;2024-01-07T02:03:27;3.80;99.90
23629;DHT22;11991;57.150;-2.134;2024-01-07T02:05:55;3.80;99.90
23629;DHT22;11991;57.150;-2.134;2024-01-07T02:08:23;3.90;99.90
23629;DHT22;11991;57.150;-2.134;2024-01-07T02:10:50;3.90;99.90
23629;DHT22;11991;57.150;-2.134;2024-01-07T02:13:17;3.90;99.90
23629;DHT22;11991;57.150;-2.134;2024-01-07T02:15:44;3.90;99.90
23629;DHT22;11991;57.150;-2.134;2024-01-07T02:18:12;4.00;99.90
23629;DHT22;11991;57.150;-2.134;2024-01-07T02:20:39;4.00;99.90
23629;DHT22;11991;57.150;-2.134;2024-01-07T02:23:06;4.10;99.90
23629;DHT22;11991;57.150;-2.134;2024-01-07T02:25:36;4.10;99.90
23629;DHT22;11991;57.150;-2.134;2024-01-07T02:28:05;4.10;99.90
23629;DHT22;11991;57.150;-2.134;2024-01-07T02:30:32;4.10;99.90
23629;DHT22;11991;57.150;-2.134;2024-01-07T02:33:04;4.10;99.90
23629;DHT22;11991;57.150;-2.134;2024-01-07T02:35:32;4.20;99.90
23629;DHT22;11991;57.150;-2.134;2024-01-07T02:37:59;4.20;99.90
23629;DHT22;11991;57.150;-2.134;2024-01-07T02:40:26;4.20;99.90
23629;DHT22;11991;57.150;-2.134;2024-01-07T02:42:54;4.30;99.90
23629;DHT22;11991;57.150;-2.134;2024-01-07T02:45:23;4.20;99.90
23629;DHT22;11991;57.150;-2.134;2024-01-07T02:47:50;4.30;99.90
23629;DHT22;11991;57.150;-2.134;2024-01-07T02:50:17;4.30;99.90
23629;DHT22;11991;57.150;-2.134;2024-01-07T02:52:45;4.30;99.90
23629;DHT22;11991;57.150;-2.134;2024-01-07T02:55:12;4.30;99.90
23629;DHT22;11991;57.150;-2.134;2024-01-07T02:57:39;4.30;99.90
23629;DHT22;11991;57.150;-2.134;2024-01-07T03:00:07;4.30;99.90
23629;DHT22;11991;57.150;-2.134;2024-01-07T03:02:34;4.30;99.90
23629;DHT22;11991;57.150;-2.134;2024-01-07T03:05:01;4.30;99.90
23629;DHT22;11991;57.150;-2.134;2024-01-07T03:07:29;4.30;99.90
23629;DHT22;11991;57.150;-2.134;2024-01-07T03:09:56;4.30;99.90
23629;DHT22;11991;57.150;-2.134;2024-01-07T03:12:23;4.30;99.90
23629;DHT22;11991;57.150;-2.134;2024-01-07T03:14:50;4.30;99.90
23629;DHT22;11991;57.150;-2.134;2024-01-07T03:17:17;4.30;99.90
23629;DHT22;11991;57.150;-2.134;2024-01-07T03:19:45;4.30;99.90
23629;DHT22;11991;57.150;-2.134;2024-01-07T03:22:12;4.30;99.90
23629;DHT22;11991;57.150;-2.134;2024-01-07T03:24:41;4.30;99.90
23629;DHT22;11991;57.150;-2.134;2024-01-07T03:27:09;4.30;99.90
23629;DHT22;11991;57.150;-2.134;2024-01-07T03:29:36;4.30;99.90
23629;DHT22;11991;57.150;-2.134;2024-01-07T03:32:03;4.30;99.90
23629;DHT22;11991;57.150;-2.134;2024-01-07T03:34:31;4.30;99.90
23629;DHT22;11991;57.150;-2.134;2024-01-07T03:36:58;4.30;99.90
23629;DHT22;11991;57.150;-2.134;2024-01-07T03:39:25;4.30;99.90
23629;DHT22;11991;57.150;-2.134;2024-01-07T03:41:55;4.30;99.90
23629;DHT22;11991;57.150;-2.134;2024-01-07T03:44:23;4.30;99.90
23629;DHT22;11991;57.150;-2.134;2024-01-07T03:46:50;4.30;99.90
23629;DHT22;11991;57.150;-2.134;2024-01-07T03:49:18;4.30;99.90
23629;DHT22;11991;57.150;-2.134;2024-01-07T03:51:45;4.30;99.90
23629;DHT22;11991;57.150;-2.134;2024-01-07T03:54:12;4.30;99.90
23629;DHT22;11991;57.150;-2.134;2024-01-07T03:56:39;4.30;99.90
23629;DHT22;11991;57.150;-2.134;2024-01-07T03:59:06;4.30;99.90
23629;DHT22;11991;57.150;-2.134;2024-01-07T04:01:34;4.30;99.90
23629;DHT22;11991;57.150;-2.134;2024-01-07T04:04:01;4.30;99.90
23629;DHT22;11991;57.150;-2.134;2024-01-07T04:06:29;4.30;99.90
23629;DHT22;11991;57.150;-2.134;2024-01-07T04:08:56;4.30;99.90
23629;DHT22;11991;57.150;-2.134;2024-01-07T04:11:23;4.30;99.90
23629;DHT22;11991;57.150;-2.134;2024-01-07T04:13:50;4.30;99.90
23629;DHT22;11991;57.150;-2.134;2024-01-07T04:16:18;4.40;99.90
23629;DHT22;11991;57.150;-2.134;2024-01-07T04:18:46;4.30;99.90
23629;DHT22;11991;57.150;-2.134;2024-01-07T04:21:19;4.30;99.90
23629;DHT22;11991;57.150;-2.134;2024-01-07T04:23:47;4.30;99.90
23629;DHT22;11991;57.150;-2.134;2024-01-07T04:26:14;4.30;99.90
23629;DHT22;11991;57.150;-2.134;2024-01-07T04:28:42;4.30;99.90
23629;DHT22;11991;57.150;-2.134;2024-01-07T04:31:09;4.30;99.90
23629;DHT22;11991;57.150;-2.134;2024-01-07T04:33:37;4.30;99.90
23629;DHT22;11991;57.150;-2.134;2024-01-07T04:36:04;4.30;99.90
23629;DHT22;11991;57.150;-2.134;2024-01-07T04:38:32;4.30;99.90
23629;DHT22;11991;57.150;-2.134;2024-01-07T04:40:59;4.20;99.90
23629;DHT22;11991;57.150;-2.134;2024-01-07T04:43:26;4.20;99.90
23629;DHT22;11991;57.150;-2.134;2024-01-07T04:45:53;4.20;99.90
23629;DHT22;11991;57.150;-2.134;2024-01-07T04:48:21;4.20;99.90
23629;DHT22;11991;57.150;-2.134;2024-01-07T04:50:48;4.20;99.90
23629;DHT22;11991;57.150;-2.134;2024-01-07T04:53:15;4.20;99.90
23629;DHT22;11991;57.150;-2.134;2024-01-07T04:55:42;4.10;99.90
23629;DHT22;11991;57.150;-2.134;2024-01-07T04:58:09;4.10;99.90
23629;DHT22;11991;57.150;-2.134;2024-01-07T05:00:36;4.10;99.90
23629;DHT22;11991;57.150;-2.134;2024-01-07T05:03:04;4.10;99.90
23629;DHT22;11991;57.150;-2.134;2024-01-07T05:05:31;4.10;99.90
23629;DHT22;11991;57.150;-2.134;2024-01-07T05:07:58;4.10;99.90
23629;DHT22;11991;57.150;-2.134;2024-01-07T05:10:27;4.10;99.90
23629;DHT22;11991;57.150;-2.134;2024-01-07T05:12:54;4.10;99.90
23629;DHT22;11991;57.150;-2.134;2024-01-07T05:15:22;4.10;99.90
23629;DHT22;11991;57.150;-2.134;2024-01-07T05:17:49;4.10;99.90
23629;DHT22;11991;57.150;-2.134;2024-01-07T05:20:16;4.10;99.90
23629;DHT22;11991;57.150;-2.134;2024-01-07T05:22:43;4.10;99.90
23629;DHT22;11991;57.150;-2.134;2024-01-07T05:25:11;4.10;99.90
23629;DHT22;11991;57.150;-2.134;2024-01-07T05:27:38;4.10;99.90
23629;DHT22;11991;57.150;-2.134;2024-01-07T05:30:06;4.10;99.90
23629;DHT22;11991;57.150;-2.134;2024-01-07T05:32:34;4.10;99.90
23629;DHT22;11991;57.150;-2.134;2024-01-07T05:35:02;4.10;99.90
23629;DHT22;11991;57.150;-2.134;2024-01-07T05:37:29;4.10;99.90
23629;DHT22;11991;57.150;-2.134;2024-01-07T05:39:56;4.10;99.90
23629;DHT22;11991;57.150;-2.134;2024-01-07T05:42:24;4.10;99.90
23629;DHT22;11991;57.150;-2.134;2024-01-07T05:44:51;4.10;99.90
23629;DHT22;11991;57.150;-2.134;2024-01-07T05:47:18;4.10;99.90
23629;DHT22;11991;57.150;-2.134;2024-01-07T05:49:45;4.00;99.90
23629;DHT22;11991;57.150;-2.134;2024-01-07T05:52:12;4.00;99.90
23629;DHT22;11991;57.150;-2.134;2024-01-07T05:54:40;4.00;99.90
23629;DHT22;11991;57.150;-2.134;2024-01-07T05:57:07;4.00;99.90
23629;DHT22;11991;57.150;-2.134;2024-01-07T05:59:34;4.00;99.90
23629;DHT22;11991;57.150;-2.134;2024-01-07T06:02:01;3.90;99.90
23629;DHT22;11991;57.150;-2.134;2024-01-07T06:04:29;3.90;99.90
23629;DHT22;11991;57.150;-2.134;2024-01-07T06:06:56;3.90;99.90
23629;DHT22;11991;57.150;-2.134;2024-01-07T06:09:23;3.90;99.90
23629;DHT22;11991;57.150;-2.134;2024-01-07T06:11:51;3.80;99.90
23629;DHT22;11991;57.150;-2.134;2024-01-07T06:14:18;3.80;99.90
23629;DHT22;11991;57.150;-2.134;2024-01-07T06:16:45;3.80;99.90
23629;DHT22;11991;57.150;-2.134;2024-01-07T06:19:12;3.80;99.90
23629;DHT22;11991;57.150;-2.134;2024-01-07T06:21:39;3.80;99.90
23629;DHT22;11991;57.150;-2.134;2024-01-07T06:24:09;3.70;99.90
23629;DHT22;11991;57.150;-2.134;2024-01-07T06:26:37;3.70;99.90
23629;DHT22;11991;57.150;-2.134;2024-01-07T06:29:04;3.70;99.90
23629;DHT22;11991;57.150;-2.134;2024-01-07T06:31:31;3.70;99.90
23629;DHT22;11991;57.150;-2.134;2024-01-07T06:33:58;3.70;99.90
23629;DHT22;11991;57.150;-2.134;2024-01-07T06:36:26;3.60;99.90
23629;DHT22;11991;57.150;-2.134;2024-01-07T06:38:53;3.60;99.90
23629;DHT22;11991;57.150;-2.134;2024-01-07T06:41:20;3.60;99.90
23629;DHT22;11991;57.150;-2.134;2024-01-07T06:43:47;3.60;99.90
23629;DHT22;11991;57.150;-2.134;2024-01-07T06:46:16;3.60;99.90
23629;DHT22;11991;57.150;-2.134;2024-01-07T06:48:43;3.60;99.90
23629;DHT22;11991;57.150;-2.134;2024-01-07T06:51:15;3.60;99.90
23629;DHT22;11991;57.150;-2.134;2024-01-07T06:53:42;3.60;99.90
23629;DHT22;11991;57.150;-2.134;2024-01-07T06:56:09;3.60;99.90
23629;DHT22;11991;57.150;-2.134;2024-01-07T06:58:36;3.60;99.90
23629;DHT22;11991;57.150;-2.134;2024-01-07T07:01:06;3.60;99.90
23629;DHT22;11991;57.150;-2.134;2024-01-07T07:03:34;3.50;99.90
23629;DHT22;11991;57.150;-2.134;2024-01-07T07:06:01;3.50;99.90
23629;DHT22;11991;57.150;-2.134;2024-01-07T07:08:28;3.50;99.90
23629;DHT22;11991;57.150;-2.134;2024-01-07T07:10:55;3.40;99.90
23629;DHT22;11991;57.150;-2.134;2024-01-07T07:13:22;3.40;99.90
23629;DHT22;11991;57.150;-2.134;2024-01-07T07:15:49;3.40;99.90
23629;DHT22;11991;57.150;-2.134;2024-01-07T07:18:16;3.30;99.90
23629;DHT22;11991;57.150;-2.134;2024-01-07T07:20:43;3.40;99.90
23629;DHT22;11991;57.150;-2.134;2024-01-07T07:23:11;3.40;99.90
23629;DHT22;11991;57.150;-2.134;2024-01-07T07:25:38;3.40;99.90
23629;DHT22;11991;57.150;-2.134;2024-01-07T07:28:05;3.40;99.90
23629;DHT22;11991;57.150;-2.134;2024-01-07T07:30:32;3.40;99.90
23629;DHT22;11991;57.150;-2.134;2024-01-07T07:33:00;3.50;99.90
23629;DHT22;11991;57.150;-2.134;2024-01-07T07:35:27;3.50;99.90
23629;DHT22;11991;57.150;-2.134;2024-01-07T07:37:55;3.50;99.90
23629;DHT22;11991;57.150;-2.134;2024-01-07T07:40:22;3.50;99.90
23629;DHT22;11991;57.150;-2.134;2024-01-07T07:42:49;3.50;99.90
23629;DHT22;11991;57.150;-2.134;2024-01-07T07:45:16;3.50;99.90
23629;DHT22;11991;57.150;-2.134;2024-01-07T07:47:44;3.50;99.90
23629;DHT22;11991;57.150;-2.134;2024-01-07T07:50:12;3.50;99.90
23629;DHT22;11991;57.150;-2.134;2024-01-07T07:52:42;3.50;99.90
23629;DHT22;11991;57.150;-2.134;2024-01-07T07:55:11;3.50;99.90
23629;DHT22;11991;57.150;-2.134;2024-01-07T07:57:38;3.50;99.90
23629;DHT22;11991;57.150;-2.134;2024-01-07T08:00:07;3.50;99.90
23629;DHT22;11991;57.150;-2.134;2024-01-07T08:02:34;3.50;99.90
23629;DHT22;11991;57.150;-2.134;2024-01-07T08:05:01;3.50;99.90
23629;DHT22;11991;57.150;-2.134;2024-01-07T08:07:28;3.50;99.90
23629;DHT22;11991;57.150;-2.134;2024-01-07T08:09:56;3.50;99.90
23629;DHT22;11991;57.150;-2.134;2024-01-07T08:12:24;3.40;99.90
23629;DHT22;11991;57.150;-2.134;2024-01-07T08:14:51;3.40;99.90
23629;DHT22;11991;57.150;-2.134;2024-01-07T08:17:19;3.40;99.90
23629;DHT22;11991;57.150;-2.134;2024-01-07T08:19:46;3.40;99.90
23629;DHT22;11991;57.150;-2.134;2024-01-07T08:22:13;3.40;99.90
23629;DHT22;11991;57.150;-2.134;2024-01-07T08:24:41;3.40;99.90
23629;DHT22;11991;57.150;-2.134;2024-01-07T08:27:08;3.40;99.90
23629;DHT22;11991;57.150;-2.134;2024-01-07T08:29:36;3.40;99.90
23629;DHT22;11991;57.150;-2.134;2024-01-07T08:32:03;3.40;99.90
23629;DHT22;11991;57.150;-2.134;2024-01-07T08:34:31;3.40;99.90
23629;DHT22;11991;57.150;-2.134;2024-01-07T08:36:58;3.40;99.90
23629;DHT22;11991;57.150;-2.134;2024-01-07T08:39:25;3.40;99.90
23629;DHT22;11991;57.150;-2.134;2024-01-07T08:41:54;3.30;99.90
23629;DHT22;11991;57.150;-2.134;2024-01-07T08:44:21;3.40;99.90
23629;DHT22;11991;57.150;-2.134;2024-01-07T08:46:48;3.40;99.90
23629;DHT22;11991;57.150;-2.134;2024-01-07T08:49:15;3.40;99.90
23629;DHT22;11991;57.150;-2.134;2024-01-07T08:51:43;3.40;99.90
23629;DHT22;11991;57.150;-2.134;2024-01-07T08:54:10;3.40;99.90
23629;DHT22;11991;57.150;-2.134;2024-01-07T08:56:37;3.40;99.90
23629;DHT22;11991;57.150;-2.134;2024-01-07T08:59:06;3.40;99.90
23629;DHT22;11991;57.150;-2.134;2024-01-07T09:01:33;3.40;99.90
23629;DHT22;11991;57.150;-2.134;2024-01-07T09:04:01;3.30;99.90
23629;DHT22;11991;57.150;-2.134;2024-01-07T09:06:28;3.30;99.90
23629;DHT22;11991;57.150;-2.134;2024-01-07T09:08:55;3.30;99.90
23629;DHT22;11991;57.150;-2.134;2024-01-07T09:11:22;3.20;99.90
23629;DHT22;11991;57.150;-2.134;2024-01-07T09:13:50;3.20;99.90
23629;DHT22;11991;57.150;-2.134;2024-01-07T09:16:18;3.20;99.90
23629;DHT22;11991;57.150;-2.134;2024-01-07T09:18:45;3.20;99.90
23629;DHT22;11991;57.150;-2.134;2024-01-07T09:21:12;3.20;99.90
23629;DHT22;11991;57.150;-2.134;2024-01-07T09:23:40;3.20;99.90
23629;DHT22;11991;57.150;-2.134;2024-01-07T09:26:07;3.30;99.90
23629;DHT22;11991;57.150;-2.134;2024-01-07T09:28:34;3.30;99.90
23629;DHT22;11991;57.150;-2.134;2024-01-07T09:31:01;3.30;99.90
23629;DHT22;11991;57.150;-2.134;2024-01-07T09:33:29;3.30;99.90
23629;DHT22;11991;57.150;-2.134;2024-01-07T09:35:56;3.30;99.90
23629;DHT22;11991;57.150;-2.134;2024-01-07T09:38:36;3.40;99.90
23629;DHT22;11991;57.150;-2.134;2024-01-07T09:41:04;3.40;99.90
23629;DHT22;11991;57.150;-2.134;2024-01-07T09:43:32;3.50;99.90
23629;DHT22;11991;57.150;-2.134;2024-01-07T09:46:02;3.50;99.90
23629;DHT22;11991;57.150;-2.134;2024-01-07T09:48:30;3.60;99.90
23629;DHT22;11991;57.150;-2.134;2024-01-07T09:50:57;3.60;99.90
23629;DHT22;11991;57.150;-2.134;2024-01-07T09:53:27;3.60;99.90
23629;DHT22;11991;57.150;-2.134;2024-01-07T09:56:11;3.70;99.90
23629;DHT22;11991;57.150;-2.134;2024-01-07T09:58:42;3.70;99.90
23629;DHT22;11991;57.150;-2.134;2024-01-07T10:01:10;3.70;99.90
23629;DHT22;11991;57.150;-2.134;2024-01-07T10:03:37;3.70;99.90
23629;DHT22;11991;57.150;-2.134;2024-01-07T10:06:05;3.70;99.90
23629;DHT22;11991;57.150;-2.134;2024-01-07T10:08:32;3.80;99.90
23629;DHT22;11991;57.150;-2.134;2024-01-07T10:11:00;3.80;99.90
23629;DHT22;11991;57.150;-2.134;2024-01-07T10:13:29;3.80;99.90
23629;DHT22;11991;57.150;-2.134;2024-01-07T10:15:57;3.90;99.90
23629;DHT22;11991;57.150;-2.134;2024-01-07T10:18:25;3.90;99.90
23629;DHT22;11991;57.150;-2.134;2024-01-07T10:20:53;4.00;99.90
23629;DHT22;11991;57.150;-2.134;2024-01-07T10:23:21;4.00;99.90
23629;DHT22;11991;57.150;-2.134;2024-01-07T10:25:48;4.10;99.90
23629;DHT22;11991;57.150;-2.134;2024-01-07T10:28:16;4.10;99.90
23629;DHT22;11991;57.150;-2.134;2024-01-07T10:30:49;4.10;99.90
23629;DHT22;11991;57.150;-2.134;2024-01-07T10:33:19;4.10;99.90
23629;DHT22;11991;57.150;-2.134;2024-01-07T10:35:52;4.10;99.90
23629;DHT22;11991;57.150;-2.134;2024-01-07T10:38:22;4.10;99.90
23629;DHT22;11991;57.150;-2.134;2024-01-07T10:40:52;4.10;99.90
23629;DHT22;11991;57.150;-2.134;2024-01-07T10:43:21;4.10;99.90
23629;DHT22;11991;57.150;-2.134;2024-01-07T10:45:50;4.10;99.90
23629;DHT22;11991;57.150;-2.134;2024-01-07T10:48:18;4.10;99.90
23629;DHT22;11991;57.150;-2.134;2024-01-07T10:50:47;4.10;99.90
23629;DHT22;11991;57.150;-2.134;2024-01-07T10:53:20;4.10;99.90
23629;DHT22;11991;57.150;-2.134;2024-01-07T10:55:58;4.10;99.90
23629;DHT22;11991;57.150;-2.134;2024-01-07T10:58:27;4.10;99.90
23629;DHT22;11991;57.150;-2.134;2024-01-07T11:00:54;4.10;99.90
23629;DHT22;11991;57.150;-2.134;2024-01-07T11:07:09;4.20;99.90
23629;DHT22;11991;57.150;-2.134;2024-01-07T11:09:46;4.20;99.90
23629;DHT22;11991;57.150;-2.134;2024-01-07T11:12:17;4.30;99.90
23629;DHT22;11991;57.150;-2.134;2024-01-07T11:14:45;4.30;99.90
23629;DHT22;11991;57.150;-2.134;2024-01-07T11:17:42;4.30;99.90
23629;DHT22;11991;57.150;-2.134;2024-01-07T11:20:21;4.40;99.90
23629;DHT22;11991;57.150;-2.134;2024-01-07T11:22:48;4.40;99.90
23629;DHT22;11991;57.150;-2.134;2024-01-07T11:25:30;4.50;99.90
23629;DHT22;11991;57.150;-2.134;2024-01-07T11:28:00;4.50;99.90
23629;DHT22;11991;57.150;-2.134;2024-01-07T11:30:27;4.60;99.90
23629;DHT22;11991;57.150;-2.134;2024-01-07T11:32:59;4.60;99.90
23629;DHT22;11991;57.150;-2.134;2024-01-07T11:35:57;4.60;99.90
23629;DHT22;11991;57.150;-2.134;2024-01-07T11:38:26;4.70;99.90
23629;DHT22;11991;57.150;-2.134;2024-01-07T11:40:55;4.70;99.90
23629;DHT22;11991;57.150;-2.134;2024-01-07T11:43:23;4.70;99.90
23629;DHT22;11991;57.150;-2.134;2024-01-07T11:45:50;4.60;99.90
23629;DHT22;11991;57.150;-2.134;2024-01-07T11:48:19;4.60;99.90
23629;DHT22;11991;57.150;-2.134;2024-01-07T11:50:46;4.60;99.90
23629;DHT22;11991;57.150;-2.134;2024-01-07T11:53:15;4.60;99.90
23629;DHT22;11991;57.150;-2.134;2024-01-07T11:55:43;4.60;99.90
23629;DHT22;11991;57.150;-2.134;2024-01-07T11:58:11;4.60;99.90
23629;DHT22;11991;57.150;-2.134;2024-01-07T12:00:38;4.60;99.90
23629;DHT22;11991;57.150;-2.134;2024-01-07T12:03:06;4.70;99.90
23629;DHT22;11991;57.150;-2.134;2024-01-07T12:05:33;4.70;99.90
23629;DHT22;11991;57.150;-2.134;2024-01-07T12:08:01;4.90;99.90
23629;DHT22;11991;57.150;-2.134;2024-01-07T12:10:28;4.90;99.90
23629;DHT22;11991;57.150;-2.134;2024-01-07T12:12:56;4.90;99.90
23629;DHT22;11991;57.150;-2.134;2024-01-07T12:15:23;5.00;99.90
23629;DHT22;11991;57.150;-2.134;2024-01-07T12:18:00;5.10;99.90
23629;DHT22;11991;57.150;-2.134;2024-01-07T12:20:29;5.10;99.90
23629;DHT22;11991;57.150;-2.134;2024-01-07T12:23:09;5.20;99.90
23629;DHT22;11991;57.150;-2.134;2024-01-07T12:25:37;5.30;99.90
23629;DHT22;11991;57.150;-2.134;2024-01-07T12:28:07;5.30;99.90
23629;DHT22;11991;57.150;-2.134;2024-01-07T12:30:34;5.40;99.90
23629;DHT22;11991;57.150;-2.134;2024-01-07T12:33:04;5.40;99.90
23629;DHT22;11991;57.150;-2.134;2024-01-07T12:35:32;5.40;99.90
23629;DHT22;11991;57.150;-2.134;2024-01-07T12:38:01;5.40;99.90
23629;DHT22;11991;57.150;-2.134;2024-01-07T12:40:28;5.40;99.90
23629;DHT22;11991;57.150;-2.134;2024-01-07T12:42:56;5.40;99.90
23629;DHT22;11991;57.150;-2.134;2024-01-07T12:45:24;5.40;99.90
23629;DHT22;11991;57.150;-2.134;2024-01-07T12:47:51;5.40;99.90
23629;DHT22;11991;57.150;-2.134;2024-01-07T12:50:21;5.40;99.90
23629;DHT22;11991;57.150;-2.134;2024-01-07T12:52:50;5.30;99.90
23629;DHT22;11991;57.150;-2.134;2024-01-07T12:55:17;5.20;99.90
23629;DHT22;11991;57.150;-2.134;2024-01-07T12:57:44;5.20;99.90
23629;DHT22;11991;57.150;-2.134;2024-01-07T13:00:12;5.10;99.90
23629;DHT22;11991;57.150;-2.134;2024-01-07T13:02:39;5.10;99.90
23629;DHT22;11991;57.150;-2.134;2024-01-07T13:05:07;5.10;99.90
23629;DHT22;11991;57.150;-2.134;2024-01-07T13:07:35;5.00;99.90
23629;DHT22;11991;57.150;-2.134;2024-01-07T13:10:02;5.00;99.90
23629;DHT22;11991;57.150;-2.134;2024-01-07T13:12:29;5.00;99.90
23629;DHT22;11991;57.150;-2.134;2024-01-07T13:15:12;4.90;99.90
23629;DHT22;11991;57.150;-2.134;2024-01-07T13:17:43;4.90;99.90
23629;DHT22;11991;57.150;-2.134;2024-01-07T13:20:11;4.90;99.90
23629;DHT22;11991;57.150;-2.134;2024-01-07T13:22:39;4.80;99.90
23629;DHT22;11991;57.150;-2.134;2024-01-07T13:25:07;4.80;99.90
23629;DHT22;11991;57.150;-2.134;2024-01-07T13:27:34;4.80;99.90
23629;DHT22;11991;57.150;-2.134;2024-01-07T13:30:04;4.80;99.90
23629;DHT22;11991;57.150;-2.134;2024-01-07T13:32:32;4.80;99.90
23629;DHT22;11991;57.150;-2.134;2024-01-07T13:35:05;4.80;99.90
23629;DHT22;11991;57.150;-2.134;2024-01-07T13:37:33;4.70;99.90
23629;DHT22;11991;57.150;-2.134;2024-01-07T13:40:00;4.70;99.90
23629;DHT22;11991;57.150;-2.134;2024-01-07T13:42:28;4.70;99.90
23629;DHT22;11991;57.150;-2.134;2024-01-07T13:44:55;4.70;99.90
23629;DHT22;11991;57.150;-2.134;2024-01-07T13:47:22;4.70;99.90
23629;DHT22;11991;57.150;-2.134;2024-01-07T13:49:49;4.80;99.90
23629;DHT22;11991;57.150;-2.134;2024-01-07T13:52:17;4.80;99.90
23629;DHT22;11991;57.150;-2.134;2024-01-07T13:54:44;4.80;99.90
23629;DHT22;11991;57.150;-2.134;2024-01-07T13:57:12;4.80;99.90
23629;DHT22;11991;57.150;-2.134;2024-01-07T13:59:40;4.90;99.90
23629;DHT22;11991;57.150;-2.134;2024-01-07T14:02:08;4.90;99.90
23629;DHT22;11991;57.150;-2.134;2024-01-07T14:04:36;5.00;99.90
23629;DHT22;11991;57.150;-2.134;2024-01-07T14:07:03;5.00;99.90
23629;DHT22;11991;57.150;-2.134;2024-01-07T14:09:31;5.00;99.90
23629;DHT22;11991;57.150;-2.134;2024-01-07T14:11:59;5.10;99.90
23629;DHT22;11991;57.150;-2.134;2024-01-07T14:14:26;5.10;99.90
23629;DHT22;11991;57.150;-2.134;2024-01-07T14:16:53;5.10;99.90
23629;DHT22;11991;57.150;-2.134;2024-01-07T14:19:20;5.10;99.90
23629;DHT22;11991;57.150;-2.134;2024-01-07T14:21:49;5.10;99.90
23629;DHT22;11991;57.150;-2.134;2024-01-07T14:24:19;5.10;99.90
23629;DHT22;11991;57.150;-2.134;2024-01-07T14:26:46;5.10;99.90
23629;DHT22;11991;57.150;-2.134;2024-01-07T14:29:13;5.10;99.90
23629;DHT22;11991;57.150;-2.134;2024-01-07T14:31:44;5.10;99.90
23629;DHT22;11991;57.150;-2.134;2024-01-07T14:34:13;5.10;99.90
23629;DHT22;11991;57.150;-2.134;2024-01-07T14:36:41;5.00;99.90
23629;DHT22;11991;57.150;-2.134;2024-01-07T14:39:11;5.00;99.90
23629;DHT22;11991;57.150;-2.134;2024-01-07T14:41:41;5.00;99.90
23629;DHT22;11991;57.150;-2.134;2024-01-07T14:44:08;5.00;99.90
23629;DHT22;11991;57.150;-2.134;2024-01-07T14:46:39;4.90;99.90
23629;DHT22;11991;57.150;-2.134;2024-01-07T14:49:06;4.90;99.90
23629;DHT22;11991;57.150;-2.134;2024-01-07T14:51:34;4.80;99.90
23629;DHT22;11991;57.150;-2.134;2024-01-07T14:54:02;4.80;99.90
23629;DHT22;11991;57.150;-2.134;2024-01-07T14:56:29;4.80;99.90
23629;DHT22;11991;57.150;-2.134;2024-01-07T14:58:56;4.80;99.90
23629;DHT22;11991;57.150;-2.134;2024-01-07T15:01:24;4.80;99.90
23629;DHT22;11991;57.150;-2.134;2024-01-07T15:03:51;4.80;99.90
23629;DHT22;11991;57.150;-2.134;2024-01-07T15:06:18;4.80;99.90
23629;DHT22;11991;57.150;-2.134;2024-01-07T15:08:46;4.80;99.90
23629;DHT22;11991;57.150;-2.134;2024-01-07T15:11:14;4.80;99.90
23629;DHT22;11991;57.150;-2.134;2024-01-07T15:13:43;4.80;99.90
23629;DHT22;11991;57.150;-2.134;2024-01-07T15:16:11;4.80;99.90
23629;DHT22;11991;57.150;-2.134;2024-01-07T15:18:38;4.70;99.90
23629;DHT22;11991;57.150;-2.134;2024-01-07T15:21:05;4.70;99.90
23629;DHT22;11991;57.150;-2.134;2024-01-07T15:23:33;4.70;99.90
23629;DHT22;11991;57.150;-2.134;2024-01-07T15:26:00;4.60;99.90
23629;DHT22;11991;57.150;-2.134;2024-01-07T15:28:28;4.50;99.90
23629;DHT22;11991;57.150;-2.134;2024-01-07T15:30:55;4.50;99.90
23629;DHT22;11991;57.150;-2.134;2024-01-07T15:33:23;4.50;99.90
23629;DHT22;11991;57.150;-2.134;2024-01-07T15:35:50;4.50;99.90
23629;DHT22;11991;57.150;-2.134;2024-01-07T15:38:17;4.40;99.90